sensor_id;sensor_type;location;lat;lon;timestamp;temperature;humidity
43651;DHT22;29247;50.944;5.382;2022-07-22T00:00:46;19.20;83.00
43651;DHT22;29247;50.944;5.382;2022-07-22T00:03:14;19.20;83.00
43651;DHT22;29247;50.944;5.382;2022-07-22T00:05:40;19.20;82.90
43651;DHT22;29247;50.944;5.382;2022-07-22T00:08:05;19.10;82.80
43651;DHT22;29247;50.944;5.382;2022-07-22T00:10:31;19.10;82.80
43651;DHT22;29247;50.944;5.382;2022-07-22T00:12:57;19.10;82.70
43651;DHT22;29247;50.944;5.382;2022-07-22T00:15:25;19.10;82.60
43651;DHT22;29247;50.944;5.382;2022-07-22T00:17:53;19.00;82.40
43651;DHT22;29247;50.944;5.382;2022-07-22T00:20:21;19.00;82.40
43651;DHT22;29247;50.944;5.382;2022-07-22T00:22:47;18.90;82.20
43651;DHT22;29247;50.944;5.382;2022-07-22T00:25:15;18.90;82.10
43651;DHT22;29247;50.944;5.382;2022-07-22T00:27:40;18.90;82.20
43651;DHT22;29247;50.944;5.382;2022-07-22T00:30:07;18.90;82.20
43651;DHT22;29247;50.944;5.382;2022-07-22T00:32:34;18.90;82.30
43651;DHT22;29247;50.944;5.382;2022-07-22T00:35:00;18.90;82.30
43651;DHT22;29247;50.944;5.382;2022-07-22T00:37:26;18.80;82.20
43651;DHT22;29247;50.944;5.382;2022-07-22T00:39:51;18.80;82.10
43651;DHT22;29247;50.944;5.382;2022-07-22T00:42:21;18.80;82.30
43651;DHT22;29247;50.944;5.382;2022-07-22T00:44:47;18.80;82.10
43651;DHT22;29247;50.944;5.382;2022-07-22T00:47:13;18.80;82.10
43651;DHT22;29247;50.944;5.382;2022-07-22T00:49:38;18.80;82.20
43651;DHT22;29247;50.944;5.382;2022-07-22T00:52:05;18.70;82.10
43651;DHT22;29247;50.944;5.382;2022-07-22T00:54:33;18.70;81.70
43651;DHT22;29247;50.944;5.382;2022-07-22T00:56:59;18.70;81.60
43651;DHT22;29247;50.944;5.382;2022-07-22T00:59:27;18.60;81.50
43651;DHT22;29247;50.944;5.382;2022-07-22T01:01:55;18.60;81.50
43651;DHT22;29247;50.944;5.382;2022-07-22T01:04:23;18.60;81.60
43651;DHT22;29247;50.944;5.382;2022-07-22T01:06:51;18.50;81.70
43651;DHT22;29247;50.944;5.382;2022-07-22T01:09:20;18.50;81.80
43651;DHT22;29247;50.944;5.382;2022-07-22T01:11:50;18.50;82.00
43651;DHT22;29247;50.944;5.382;2022-07-22T01:14:15;18.50;82.20
43651;DHT22;29247;50.944;5.382;2022-07-22T01:16:43;18.50;82.40
43651;DHT22;29247;50.944;5.382;2022-07-22T01:19:10;18.50;82.90
43651;DHT22;29247;50.944;5.382;2022-07-22T01:21:35;18.50;82.50
43651;DHT22;29247;50.944;5.382;2022-07-22T01:24:02;18.40;82.40
43651;DHT22;29247;50.944;5.382;2022-07-22T01:26:28;18.40;82.50
43651;DHT22;29247;50.944;5.382;2022-07-22T01:28:56;18.40;82.40
43651;DHT22;29247;50.944;5.382;2022-07-22T01:31:24;18.40;82.60
43651;DHT22;29247;50.944;5.382;2022-07-22T01:33:50;18.40;82.60
43651;DHT22;29247;50.944;5.382;2022-07-22T01:36:16;18.40;82.80
43651;DHT22;29247;50.944;5.382;2022-07-22T01:38:41;18.40;82.80
43651;DHT22;29247;50.944;5.382;2022-07-22T01:41:12;18.40;83.00
43651;DHT22;29247;50.944;5.382;2022-07-22T01:43:38;18.40;83.40
43651;DHT22;29247;50.944;5.382;2022-07-22T01:46:04;18.40;83.40
43651;DHT22;29247;50.944;5.382;2022-07-22T01:48:30;18.40;83.20
43651;DHT22;29247;50.944;5.382;2022-07-22T01:50:58;18.40;83.00
43651;DHT22;29247;50.944;5.382;2022-07-22T01:53:24;18.40;83.10
43651;DHT22;29247;50.944;5.382;2022-07-22T01:55:49;18.40;83.10
43651;DHT22;29247;50.944;5.382;2022-07-22T01:58:15;18.40;83.40
43651;DHT22;29247;50.944;5.382;2022-07-22T02:00:46;18.40;83.30
43651;DHT22;29247;50.944;5.382;2022-07-22T02:03:12;18.40;83.20
43651;DHT22;29247;50.944;5.382;2022-07-22T02:05:38;18.30;83.30
43651;DHT22;29247;50.944;5.382;2022-07-22T02:08:08;18.30;83.60
43651;DHT22;29247;50.944;5.382;2022-07-22T02:10:37;18.30;83.60
43651;DHT22;29247;50.944;5.382;2022-07-22T02:13:04;18.30;83.50
43651;DHT22;29247;50.944;5.382;2022-07-22T02:15:30;18.30;83.30
43651;DHT22;29247;50.944;5.382;2022-07-22T02:17:56;18.30;83.30
43651;DHT22;29247;50.944;5.382;2022-07-22T02:20:22;18.30;83.40
43651;DHT22;29247;50.944;5.382;2022-07-22T02:22:50;18.30;83.50
43651;DHT22;29247;50.944;5.382;2022-07-22T02:25:16;18.30;83.70
43651;DHT22;29247;50.944;5.382;2022-07-22T02:27:42;18.30;83.60
43651;DHT22;29247;50.944;5.382;2022-07-22T02:30:08;18.30;83.80
43651;DHT22;29247;50.944;5.382;2022-07-22T02:32:36;18.30;83.80
43651;DHT22;29247;50.944;5.382;2022-07-22T02:35:04;18.30;83.80
43651;DHT22;29247;50.944;5.382;2022-07-22T02:37:30;18.30;83.70
43651;DHT22;29247;50.944;5.382;2022-07-22T02:39:55;18.30;83.80
43651;DHT22;29247;50.944;5.382;2022-07-22T02:42:21;18.30;83.70
43651;DHT22;29247;50.944;5.382;2022-07-22T02:44:49;18.30;83.50
43651;DHT22;29247;50.944;5.382;2022-07-22T02:47:17;18.20;83.40
43651;DHT22;29247;50.944;5.382;2022-07-22T02:49:42;18.20;83.40
43651;DHT22;29247;50.944;5.382;2022-07-22T02:52:08;18.20;83.40
43651;DHT22;29247;50.944;5.382;2022-07-22T02:54:34;18.20;83.30
43651;DHT22;29247;50.944;5.382;2022-07-22T02:57:02;18.20;83.50
43651;DHT22;29247;50.944;5.382;2022-07-22T02:59:29;18.20;83.60
43651;DHT22;29247;50.944;5.382;2022-07-22T03:01:57;18.10;83.40
43651;DHT22;29247;50.944;5.382;2022-07-22T03:04:23;18.20;83.60
43651;DHT22;29247;50.944;5.382;2022-07-22T03:06:49;18.10;83.40
43651;DHT22;29247;50.944;5.382;2022-07-22T03:09:14;18.10;83.30
43651;DHT22;29247;50.944;5.382;2022-07-22T03:11:40;18.10;83.30
43651;DHT22;29247;50.944;5.382;2022-07-22T03:14:06;18.10;83.50
43651;DHT22;29247;50.944;5.382;2022-07-22T03:16:31;18.10;83.50
43651;DHT22;29247;50.944;5.382;2022-07-22T03:18:57;18.10;83.70
43651;DHT22;29247;50.944;5.382;2022-07-22T03:21:23;18.10;83.90
43651;DHT22;29247;50.944;5.382;2022-07-22T03:23:48;18.10;83.90
43651;DHT22;29247;50.944;5.382;2022-07-22T03:26:19;18.10;83.70
43651;DHT22;29247;50.944;5.382;2022-07-22T03:28:48;18.10;83.60
43651;DHT22;29247;50.944;5.382;2022-07-22T03:31:13;18.10;83.60
43651;DHT22;29247;50.944;5.382;2022-07-22T03:33:39;18.10;83.60
43651;DHT22;29247;50.944;5.382;2022-07-22T03:36:05;18.00;83.40
43651;DHT22;29247;50.944;5.382;2022-07-22T03:38:33;18.00;83.10
43651;DHT22;29247;50.944;5.382;2022-07-22T03:41:03;18.00;82.80
43651;DHT22;29247;50.944;5.382;2022-07-22T03:43:30;17.90;82.60
43651;DHT22;29247;50.944;5.382;2022-07-22T03:45:55;17.90;82.60
43651;DHT22;29247;50.944;5.382;2022-07-22T03:48:26;17.90;82.80
43651;DHT22;29247;50.944;5.382;2022-07-22T03:50:52;17.80;82.70
43651;DHT22;29247;50.944;5.382;2022-07-22T03:53:18;17.80;82.60
43651;DHT22;29247;50.944;5.382;2022-07-22T03:55:47;17.80;82.60
43651;DHT22;29247;50.944;5.382;2022-07-22T03:58:17;17.70;82.70
43651;DHT22;29247;50.944;5.382;2022-07-22T04:00:45;17.70;82.70
43651;DHT22;29247;50.944;5.382;2022-07-22T04:03:11;17.70;82.20
43651;DHT22;29247;50.944;5.382;2022-07-22T04:05:37;17.70;82.20
43651;DHT22;29247;50.944;5.382;2022-07-22T04:08:02;17.60;82.10
43651;DHT22;29247;50.944;5.382;2022-07-22T04:10:29;17.60;82.00
43651;DHT22;29247;50.944;5.382;2022-07-22T04:12:54;17.50;82.30
43651;DHT22;29247;50.944;5.382;2022-07-22T04:15:20;17.50;82.30
43651;DHT22;29247;50.944;5.382;2022-07-22T04:17:46;17.50;82.00
43651;DHT22;29247;50.944;5.382;2022-07-22T04:20:12;17.50;82.00
43651;DHT22;29247;50.944;5.382;2022-07-22T04:22:37;17.40;82.10
43651;DHT22;29247;50.944;5.382;2022-07-22T04:25:06;17.40;82.30
43651;DHT22;29247;50.944;5.382;2022-07-22T04:27:31;17.40;82.80
43651;DHT22;29247;50.944;5.382;2022-07-22T04:30:00;17.40;82.90
43651;DHT22;29247;50.944;5.382;2022-07-22T04:32:25;17.40;82.80
43651;DHT22;29247;50.944;5.382;2022-07-22T04:34:51;17.40;82.80
43651;DHT22;29247;50.944;5.382;2022-07-22T04:37:17;17.40;82.60
43651;DHT22;29247;50.944;5.382;2022-07-22T04:39:42;17.40;82.70
43651;DHT22;29247;50.944;5.382;2022-07-22T04:42:08;17.40;83.10
43651;DHT22;29247;50.944;5.382;2022-07-22T04:44:36;17.40;83.20
43651;DHT22;29247;50.944;5.382;2022-07-22T04:47:01;17.40;83.50
43651;DHT22;29247;50.944;5.382;2022-07-22T04:49:29;17.40;83.40
43651;DHT22;29247;50.944;5.382;2022-07-22T04:51:57;17.40;83.40
43651;DHT22;29247;50.944;5.382;2022-07-22T04:54:23;17.50;83.30
43651;DHT22;29247;50.944;5.382;2022-07-22T04:56:49;17.50;83.50
43651;DHT22;29247;50.944;5.382;2022-07-22T04:59:15;17.50;83.60
43651;DHT22;29247;50.944;5.382;2022-07-22T05:01:40;17.50;83.70
43651;DHT22;29247;50.944;5.382;2022-07-22T05:04:08;17.50;83.70
43651;DHT22;29247;50.944;5.382;2022-07-22T05:06:34;17.50;83.80
43651;DHT22;29247;50.944;5.382;2022-07-22T05:09:00;17.50;83.80
43651;DHT22;29247;50.944;5.382;2022-07-22T05:11:25;17.50;84.00
43651;DHT22;29247;50.944;5.382;2022-07-22T05:13:53;17.60;84.30
43651;DHT22;29247;50.944;5.382;2022-07-22T05:16:23;17.60;84.30
43651;DHT22;29247;50.944;5.382;2022-07-22T05:18:49;17.60;84.20
43651;DHT22;29247;50.944;5.382;2022-07-22T05:21:15;17.60;84.30
43651;DHT22;29247;50.944;5.382;2022-07-22T05:23:40;17.60;84.90
43651;DHT22;29247;50.944;5.382;2022-07-22T05:26:06;17.60;84.30
43651;DHT22;29247;50.944;5.382;2022-07-22T05:28:33;17.70;84.40
43651;DHT22;29247;50.944;5.382;2022-07-22T05:30:58;17.70;84.40
43651;DHT22;29247;50.944;5.382;2022-07-22T05:33:26;17.70;84.50
43651;DHT22;29247;50.944;5.382;2022-07-22T05:35:52;17.70;84.60
43651;DHT22;29247;50.944;5.382;2022-07-22T05:38:18;17.70;84.60
43651;DHT22;29247;50.944;5.382;2022-07-22T05:40:46;17.70;84.70
43651;DHT22;29247;50.944;5.382;2022-07-22T05:43:11;17.70;84.90
43651;DHT22;29247;50.944;5.382;2022-07-22T05:45:39;17.80;85.00
43651;DHT22;29247;50.944;5.382;2022-07-22T05:48:05;17.80;85.00
43651;DHT22;29247;50.944;5.382;2022-07-22T05:50:33;17.80;84.60
43651;DHT22;29247;50.944;5.382;2022-07-22T05:53:00;17.80;84.20
43651;DHT22;29247;50.944;5.382;2022-07-22T05:55:30;17.90;84.40
43651;DHT22;29247;50.944;5.382;2022-07-22T05:57:56;17.90;84.50
43651;DHT22;29247;50.944;5.382;2022-07-22T06:00:21;17.90;84.30
43651;DHT22;29247;50.944;5.382;2022-07-22T06:02:52;17.90;84.20
43651;DHT22;29247;50.944;5.382;2022-07-22T06:05:18;17.90;83.90
43651;DHT22;29247;50.944;5.382;2022-07-22T06:07:45;17.90;83.60
43651;DHT22;29247;50.944;5.382;2022-07-22T06:10:11;17.90;83.10
43651;DHT22;29247;50.944;5.382;2022-07-22T06:12:39;17.90;82.80
43651;DHT22;29247;50.944;5.382;2022-07-22T06:15:05;17.90;82.70
43651;DHT22;29247;50.944;5.382;2022-07-22T06:17:32;17.90;82.60
43651;DHT22;29247;50.944;5.382;2022-07-22T06:19:58;18.00;82.70
43651;DHT22;29247;50.944;5.382;2022-07-22T06:22:26;18.00;82.20
43651;DHT22;29247;50.944;5.382;2022-07-22T06:24:55;18.00;82.00
43651;DHT22;29247;50.944;5.382;2022-07-22T06:27:20;18.10;81.60
43651;DHT22;29247;50.944;5.382;2022-07-22T06:29:46;18.10;81.40
43651;DHT22;29247;50.944;5.382;2022-07-22T06:32:11;18.10;80.80
43651;DHT22;29247;50.944;5.382;2022-07-22T06:34:37;18.20;80.80
43651;DHT22;29247;50.944;5.382;2022-07-22T06:37:03;18.20;81.20
43651;DHT22;29247;50.944;5.382;2022-07-22T06:39:29;18.20;80.40
43651;DHT22;29247;50.944;5.382;2022-07-22T06:41:58;18.20;80.00
43651;DHT22;29247;50.944;5.382;2022-07-22T06:44:26;18.30;79.60
43651;DHT22;29247;50.944;5.382;2022-07-22T06:46:52;18.30;79.30
43651;DHT22;29247;50.944;5.382;2022-07-22T06:49:20;18.30;79.00
43651;DHT22;29247;50.944;5.382;2022-07-22T06:51:50;18.30;78.80
43651;DHT22;29247;50.944;5.382;2022-07-22T06:54:18;18.40;78.50
43651;DHT22;29247;50.944;5.382;2022-07-22T06:56:44;18.40;78.20
43651;DHT22;29247;50.944;5.382;2022-07-22T06:59:09;18.50;78.20
43651;DHT22;29247;50.944;5.382;2022-07-22T07:01:35;18.60;78.50
43651;DHT22;29247;50.944;5.382;2022-07-22T07:04:01;18.60;78.50
43651;DHT22;29247;50.944;5.382;2022-07-22T07:06:29;18.60;77.80
43651;DHT22;29247;50.944;5.382;2022-07-22T07:08:58;18.70;77.10
43651;DHT22;29247;50.944;5.382;2022-07-22T07:11:24;18.70;77.30
43651;DHT22;29247;50.944;5.382;2022-07-22T07:13:50;18.80;76.80
43651;DHT22;29247;50.944;5.382;2022-07-22T07:16:16;19.10;77.10
43651;DHT22;29247;50.944;5.382;2022-07-22T07:18:42;19.50;76.20
43651;DHT22;29247;50.944;5.382;2022-07-22T07:21:10;19.90;75.20
43651;DHT22;29247;50.944;5.382;2022-07-22T07:23:37;20.30;72.70
43651;DHT22;29247;50.944;5.382;2022-07-22T07:26:06;20.70;70.90
43651;DHT22;29247;50.944;5.382;2022-07-22T07:28:31;21.20;68.50
43651;DHT22;29247;50.944;5.382;2022-07-22T07:31:02;21.80;68.20
43651;DHT22;29247;50.944;5.382;2022-07-22T07:33:28;22.30;66.40
43651;DHT22;29247;50.944;5.382;2022-07-22T07:35:57;22.90;65.30
43651;DHT22;29247;50.944;5.382;2022-07-22T07:38:23;23.50;63.10
43651;DHT22;29247;50.944;5.382;2022-07-22T07:40:51;23.90;60.80
43651;DHT22;29247;50.944;5.382;2022-07-22T07:43:16;24.30;59.50
43651;DHT22;29247;50.944;5.382;2022-07-22T07:45:45;24.40;57.90
43651;DHT22;29247;50.944;5.382;2022-07-22T07:48:11;24.30;57.80
43651;DHT22;29247;50.944;5.382;2022-07-22T07:50:39;24.10;57.50
43651;DHT22;29247;50.944;5.382;2022-07-22T07:53:07;23.90;57.60
43651;DHT22;29247;50.944;5.382;2022-07-22T07:55:33;23.60;57.70
43651;DHT22;29247;50.944;5.382;2022-07-22T07:58:02;23.30;58.00
43651;DHT22;29247;50.944;5.382;2022-07-22T08:00:32;23.00;58.80
43651;DHT22;29247;50.944;5.382;2022-07-22T08:03:00;22.80;59.20
43651;DHT22;29247;50.944;5.382;2022-07-22T08:05:27;22.60;59.60
43651;DHT22;29247;50.944;5.382;2022-07-22T08:07:55;22.50;60.20
43651;DHT22;29247;50.944;5.382;2022-07-22T08:10:22;22.40;61.10
43651;DHT22;29247;50.944;5.382;2022-07-22T08:12:53;22.30;61.20
43651;DHT22;29247;50.944;5.382;2022-07-22T08:15:20;22.20;61.80
43651;DHT22;29247;50.944;5.382;2022-07-22T08:17:46;22.00;62.00
43651;DHT22;29247;50.944;5.382;2022-07-22T08:20:14;21.90;62.80
43651;DHT22;29247;50.944;5.382;2022-07-22T08:22:40;21.80;62.90
43651;DHT22;29247;50.944;5.382;2022-07-22T08:25:08;21.60;63.40
43651;DHT22;29247;50.944;5.382;2022-07-22T08:27:35;21.50;63.70
43651;DHT22;29247;50.944;5.382;2022-07-22T08:30:00;21.40;64.80
43651;DHT22;29247;50.944;5.382;2022-07-22T08:32:30;21.50;65.40
43651;DHT22;29247;50.944;5.382;2022-07-22T08:34:55;21.50;65.90
43651;DHT22;29247;50.944;5.382;2022-07-22T08:37:24;21.60;65.90
43651;DHT22;29247;50.944;5.382;2022-07-22T08:39:52;21.60;65.90
43651;DHT22;29247;50.944;5.382;2022-07-22T08:42:21;21.70;66.20
43651;DHT22;29247;50.944;5.382;2022-07-22T08:44:48;21.70;64.50
43651;DHT22;29247;50.944;5.382;2022-07-22T08:47:14;21.70;65.10
43651;DHT22;29247;50.944;5.382;2022-07-22T08:49:42;21.70;64.30
43651;DHT22;29247;50.944;5.382;2022-07-22T08:52:08;21.70;64.00
43651;DHT22;29247;50.944;5.382;2022-07-22T08:54:34;21.70;64.30
43651;DHT22;29247;50.944;5.382;2022-07-22T08:57:00;21.70;64.40
43651;DHT22;29247;50.944;5.382;2022-07-22T08:59:25;21.60;65.30
43651;DHT22;29247;50.944;5.382;2022-07-22T09:04:33;21.60;65.50
43651;DHT22;29247;50.944;5.382;2022-07-22T09:07:27;21.60;65.00
43651;DHT22;29247;50.944;5.382;2022-07-22T09:09:53;21.60;65.20
43651;DHT22;29247;50.944;5.382;2022-07-22T09:12:24;21.50;65.00
43651;DHT22;29247;50.944;5.382;2022-07-22T09:14:55;21.50;66.00
43651;DHT22;29247;50.944;5.382;2022-07-22T09:17:36;21.60;65.70
43651;DHT22;29247;50.944;5.382;2022-07-22T09:20:16;21.60;66.50
43651;DHT22;29247;50.944;5.382;2022-07-22T09:22:46;21.60;66.00
43651;DHT22;29247;50.944;5.382;2022-07-22T09:25:29;21.60;66.10
43651;DHT22;29247;50.944;5.382;2022-07-22T09:33:08;21.60;64.80
43651;DHT22;29247;50.944;5.382;2022-07-22T09:35:34;21.70;65.80
43651;DHT22;29247;50.944;5.382;2022-07-22T09:38:03;21.70;65.80
43651;DHT22;29247;50.944;5.382;2022-07-22T09:40:35;21.80;65.40
43651;DHT22;29247;50.944;5.382;2022-07-22T09:43:13;21.80;66.60
43651;DHT22;29247;50.944;5.382;2022-07-22T09:48:18;22.00;66.00
43651;DHT22;29247;50.944;5.382;2022-07-22T09:50:47;22.00;65.80
43651;DHT22;29247;50.944;5.382;2022-07-22T09:53:14;22.10;65.20
43651;DHT22;29247;50.944;5.382;2022-07-22T09:55:40;22.10;64.30
43651;DHT22;29247;50.944;5.382;2022-07-22T09:58:08;22.10;63.00
43651;DHT22;29247;50.944;5.382;2022-07-22T10:00:36;22.10;62.60
43651;DHT22;29247;50.944;5.382;2022-07-22T10:03:11;22.00;62.90
43651;DHT22;29247;50.944;5.382;2022-07-22T10:05:38;22.00;62.80
43651;DHT22;29247;50.944;5.382;2022-07-22T10:08:09;22.00;63.00
43651;DHT22;29247;50.944;5.382;2022-07-22T10:10:36;22.00;63.40
43651;DHT22;29247;50.944;5.382;2022-07-22T10:13:06;22.00;63.90
43651;DHT22;29247;50.944;5.382;2022-07-22T10:15:35;22.00;63.70
43651;DHT22;29247;50.944;5.382;2022-07-22T10:18:07;22.00;64.00
43651;DHT22;29247;50.944;5.382;2022-07-22T10:20:33;22.00;64.60
43651;DHT22;29247;50.944;5.382;2022-07-22T10:23:06;22.00;65.10
43651;DHT22;29247;50.944;5.382;2022-07-22T10:25:49;22.00;64.30
43651;DHT22;29247;50.944;5.382;2022-07-22T10:28:26;22.00;64.20
43651;DHT22;29247;50.944;5.382;2022-07-22T10:33:39;22.10;64.30
43651;DHT22;29247;50.944;5.382;2022-07-22T10:36:08;22.20;64.50
43651;DHT22;29247;50.944;5.382;2022-07-22T10:38:34;22.20;65.70
43651;DHT22;29247;50.944;5.382;2022-07-22T10:41:05;22.30;65.30
43651;DHT22;29247;50.944;5.382;2022-07-22T10:46:09;22.40;65.60
43651;DHT22;29247;50.944;5.382;2022-07-22T10:51:22;22.50;64.30
43651;DHT22;29247;50.944;5.382;2022-07-22T10:59:09;22.50;62.10
43651;DHT22;29247;50.944;5.382;2022-07-22T11:01:38;22.50;62.40
43651;DHT22;29247;50.944;5.382;2022-07-22T11:06:45;22.60;63.10
43651;DHT22;29247;50.944;5.382;2022-07-22T11:09:12;22.60;63.10
43651;DHT22;29247;50.944;5.382;2022-07-22T11:11:53;22.60;62.70
43651;DHT22;29247;50.944;5.382;2022-07-22T11:17:05;22.70;62.40
43651;DHT22;29247;50.944;5.382;2022-07-22T11:19:32;22.70;62.60
43651;DHT22;29247;50.944;5.382;2022-07-22T11:22:09;22.70;62.70
43651;DHT22;29247;50.944;5.382;2022-07-22T11:24:35;22.70;62.70
43651;DHT22;29247;50.944;5.382;2022-07-22T11:27:06;22.70;61.80
43651;DHT22;29247;50.944;5.382;2022-07-22T11:29:37;22.80;62.40
43651;DHT22;29247;50.944;5.382;2022-07-22T11:32:12;22.80;62.00
43651;DHT22;29247;50.944;5.382;2022-07-22T11:34:41;22.80;62.80
43651;DHT22;29247;50.944;5.382;2022-07-22T11:37:20;22.90;62.70
43651;DHT22;29247;50.944;5.382;2022-07-22T11:39:51;22.90;61.60
43651;DHT22;29247;50.944;5.382;2022-07-22T11:42:18;22.90;62.10
43651;DHT22;29247;50.944;5.382;2022-07-22T11:44:44;23.00;62.30
43651;DHT22;29247;50.944;5.382;2022-07-22T11:47:10;23.00;62.80
43651;DHT22;29247;50.944;5.382;2022-07-22T11:49:38;23.10;62.90
43651;DHT22;29247;50.944;5.382;2022-07-22T11:52:09;23.10;61.70
43651;DHT22;29247;50.944;5.382;2022-07-22T11:54:38;23.10;61.60
43651;DHT22;29247;50.944;5.382;2022-07-22T11:57:05;23.10;61.20
43651;DHT22;29247;50.944;5.382;2022-07-22T11:59:35;23.20;61.30
43651;DHT22;29247;50.944;5.382;2022-07-22T12:02:02;23.20;61.90
43651;DHT22;29247;50.944;5.382;2022-07-22T12:04:29;23.20;61.70
43651;DHT22;29247;50.944;5.382;2022-07-22T12:06:58;23.30;62.50
43651;DHT22;29247;50.944;5.382;2022-07-22T12:09:26;23.30;61.70
43651;DHT22;29247;50.944;5.382;2022-07-22T12:11:55;23.30;62.00
43651;DHT22;29247;50.944;5.382;2022-07-22T12:14:25;23.30;62.20
43651;DHT22;29247;50.944;5.382;2022-07-22T12:19:35;23.30;61.60
43651;DHT22;29247;50.944;5.382;2022-07-22T12:22:09;23.40;61.20
43651;DHT22;29247;50.944;5.382;2022-07-22T12:24:43;23.40;61.70
43651;DHT22;29247;50.944;5.382;2022-07-22T12:27:10;23.40;62.70
43651;DHT22;29247;50.944;5.382;2022-07-22T12:29:43;23.50;62.20
43651;DHT22;29247;50.944;5.382;2022-07-22T12:32:28;23.50;61.40
43651;DHT22;29247;50.944;5.382;2022-07-22T12:37:43;23.60;62.30
43651;DHT22;29247;50.944;5.382;2022-07-22T12:42:41;23.60;60.30
43651;DHT22;29247;50.944;5.382;2022-07-22T12:45:15;23.60;59.90
43651;DHT22;29247;50.944;5.382;2022-07-22T12:47:52;23.60;60.20
43651;DHT22;29247;50.944;5.382;2022-07-22T12:50:31;23.60;59.30
43651;DHT22;29247;50.944;5.382;2022-07-22T12:53:00;23.60;59.80
43651;DHT22;29247;50.944;5.382;2022-07-22T12:55:34;23.70;61.00
43651;DHT22;29247;50.944;5.382;2022-07-22T12:58:01;23.70;60.50
43651;DHT22;29247;50.944;5.382;2022-07-22T13:00:33;23.70;59.70
43651;DHT22;29247;50.944;5.382;2022-07-22T13:03:00;23.80;60.20
43651;DHT22;29247;50.944;5.382;2022-07-22T13:05:27;23.80;60.60
43651;DHT22;29247;50.944;5.382;2022-07-22T13:07:53;23.80;59.90
43651;DHT22;29247;50.944;5.382;2022-07-22T13:10:23;23.90;60.40
43651;DHT22;29247;50.944;5.382;2022-07-22T13:12:50;23.90;60.50
43651;DHT22;29247;50.944;5.382;2022-07-22T13:15:17;23.90;60.20
43651;DHT22;29247;50.944;5.382;2022-07-22T13:17:43;23.90;59.80
43651;DHT22;29247;50.944;5.382;2022-07-22T13:20:11;24.00;59.50
43651;DHT22;29247;50.944;5.382;2022-07-22T13:22:38;24.00;59.10
43651;DHT22;29247;50.944;5.382;2022-07-22T13:25:05;24.00;58.40
43651;DHT22;29247;50.944;5.382;2022-07-22T13:27:33;24.00;59.00
43651;DHT22;29247;50.944;5.382;2022-07-22T13:29:58;24.00;59.00
43651;DHT22;29247;50.944;5.382;2022-07-22T13:32:26;24.10;59.10
43651;DHT22;29247;50.944;5.382;2022-07-22T13:34:54;24.20;58.30
43651;DHT22;29247;50.944;5.382;2022-07-22T13:37:21;24.20;58.00
43651;DHT22;29247;50.944;5.382;2022-07-22T13:39:47;24.20;57.60
43651;DHT22;29247;50.944;5.382;2022-07-22T13:42:18;24.20;57.80
43651;DHT22;29247;50.944;5.382;2022-07-22T13:44:48;24.30;59.00
43651;DHT22;29247;50.944;5.382;2022-07-22T13:47:19;24.30;58.50
43651;DHT22;29247;50.944;5.382;2022-07-22T13:49:45;24.20;58.40
43651;DHT22;29247;50.944;5.382;2022-07-22T13:52:12;24.20;58.40
43651;DHT22;29247;50.944;5.382;2022-07-22T13:54:40;24.20;58.50
43651;DHT22;29247;50.944;5.382;2022-07-22T13:57:06;24.20;57.80
43651;DHT22;29247;50.944;5.382;2022-07-22T13:59:33;24.20;58.50
43651;DHT22;29247;50.944;5.382;2022-07-22T14:01:59;24.30;58.20
43651;DHT22;29247;50.944;5.382;2022-07-22T14:04:28;24.30;58.60
43651;DHT22;29247;50.944;5.382;2022-07-22T14:06:54;24.30;58.40
43651;DHT22;29247;50.944;5.382;2022-07-22T14:09:20;24.40;57.90
43651;DHT22;29247;50.944;5.382;2022-07-22T14:11:47;24.40;58.10
43651;DHT22;29247;50.944;5.382;2022-07-22T14:14:14;24.40;58.20
43651;DHT22;29247;50.944;5.382;2022-07-22T14:16:42;24.40;57.90
43651;DHT22;29247;50.944;5.382;2022-07-22T14:19:13;24.40;58.20
43651;DHT22;29247;50.944;5.382;2022-07-22T14:21:46;24.40;59.00
43651;DHT22;29247;50.944;5.382;2022-07-22T14:24:11;24.40;59.30
43651;DHT22;29247;50.944;5.382;2022-07-22T14:26:40;24.40;58.80
43651;DHT22;29247;50.944;5.382;2022-07-22T14:29:07;24.40;58.80
43651;DHT22;29247;50.944;5.382;2022-07-22T14:31:38;24.40;58.70
43651;DHT22;29247;50.944;5.382;2022-07-22T14:34:04;24.40;58.60
43651;DHT22;29247;50.944;5.382;2022-07-22T14:36:30;24.50;58.00
43651;DHT22;29247;50.944;5.382;2022-07-22T14:38:56;24.50;58.30
43651;DHT22;29247;50.944;5.382;2022-07-22T14:41:24;24.50;58.10
43651;DHT22;29247;50.944;5.382;2022-07-22T14:43:49;24.50;58.00
43651;DHT22;29247;50.944;5.382;2022-07-22T14:46:17;24.50;58.40
43651;DHT22;29247;50.944;5.382;2022-07-22T14:48:43;24.60;58.50
43651;DHT22;29247;50.944;5.382;2022-07-22T14:51:11;24.60;58.30
43651;DHT22;29247;50.944;5.382;2022-07-22T14:53:39;24.60;58.30
43651;DHT22;29247;50.944;5.382;2022-07-22T14:56:09;24.60;58.20
43651;DHT22;29247;50.944;5.382;2022-07-22T14:58:35;24.50;58.20
43651;DHT22;29247;50.944;5.382;2022-07-22T15:01:03;24.60;58.20
43651;DHT22;29247;50.944;5.382;2022-07-22T15:03:29;24.60;58.20
43651;DHT22;29247;50.944;5.382;2022-07-22T15:06:02;24.60;57.90
43651;DHT22;29247;50.944;5.382;2022-07-22T15:08:27;24.60;58.20
43651;DHT22;29247;50.944;5.382;2022-07-22T15:10:55;24.60;58.20
43651;DHT22;29247;50.944;5.382;2022-07-22T15:13:21;24.60;58.00
43651;DHT22;29247;50.944;5.382;2022-07-22T15:15:47;24.60;58.50
43651;DHT22;29247;50.944;5.382;2022-07-22T15:18:13;24.60;58.10
43651;DHT22;29247;50.944;5.382;2022-07-22T15:20:41;24.60;57.20
43651;DHT22;29247;50.944;5.382;2022-07-22T15:23:07;24.60;57.60
43651;DHT22;29247;50.944;5.382;2022-07-22T15:25:36;24.60;57.90
43651;DHT22;29247;50.944;5.382;2022-07-22T15:28:05;24.60;57.50
43651;DHT22;29247;50.944;5.382;2022-07-22T15:30:32;24.60;57.60
43651;DHT22;29247;50.944;5.382;2022-07-22T15:32:57;24.70;57.50
43651;DHT22;29247;50.944;5.382;2022-07-22T15:35:26;24.60;57.20
43651;DHT22;29247;50.944;5.382;2022-07-22T15:37:54;24.60;57.50
43651;DHT22;29247;50.944;5.382;2022-07-22T15:40:19;24.60;57.60
43651;DHT22;29247;50.944;5.382;2022-07-22T15:42:46;24.60;57.60
43651;DHT22;29247;50.944;5.382;2022-07-22T15:45:12;24.60;57.80
43651;DHT22;29247;50.944;5.382;2022-07-22T15:47:40;24.60;57.90
43651;DHT22;29247;50.944;5.382;2022-07-22T15:50:06;24.60;57.40
43651;DHT22;29247;50.944;5.382;2022-07-22T15:52:35;24.60;57.60
43651;DHT22;29247;50.944;5.382;2022-07-22T15:55:01;24.50;57.50
43651;DHT22;29247;50.944;5.382;2022-07-22T15:57:26;24.50;57.00
43651;DHT22;29247;50.944;5.382;2022-07-22T16:00:11;24.50;57.40
43651;DHT22;29247;50.944;5.382;2022-07-22T16:02:39;24.40;57.30
43651;DHT22;29247;50.944;5.382;2022-07-22T16:05:06;24.40;57.70
43651;DHT22;29247;50.944;5.382;2022-07-22T16:07:35;24.40;57.50
43651;DHT22;29247;50.944;5.382;2022-07-22T16:10:02;24.40;57.50